Time;durP1;ratioP1;P1;durP2;ratioP2;P2;SDS_P1;SDS_P2;PMS_P1;PMS_P2;Temp;Humidity;BMP_temperature;BMP_pressure;BME280_temperature;BME280_humidity;BME280_pressure;Samples;Min_cycle;Max_cycle;Signal;HPM_P1;HPM_P2
2021/01/07 00:01:41;;;;;;;77.63;45.88;;;205.70;2073.60;;;;;;5094258;28;20106;-68
2021/01/07 00:04:07;;;;;;;83.35;44.83;;;205.70;2073.60;;;;;;5094499;28;20039;-71
2021/01/07 00:06:34;;;;;;;80.07;44.88;;;205.70;2073.60;;;;;;5094565;28;20027;-67
2021/01/07 00:09:00;;;;;;;74.63;42.08;;;205.70;2073.60;;;;;;5094302;28;20024;-71
2021/01/07 00:11:26;;;;;;;72.25;41.60;;;205.70;2073.60;;;;;;5094274;28;20369;-68
2021/01/07 00:13:52;;;;;;;65.40;40.50;;;205.70;2073.60;;;;;;5094211;28;20050;-67
2021/01/07 00:16:19;;;;;;;67.30;41.88;;;205.70;2073.60;;;;;;5093990;28;20107;-70
2021/01/07 00:18:45;;;;;;;70.07;42.13;;;205.60;2073.60;;;;;;5094396;28;20088;-69
2021/01/07 00:21:12;;;;;;;77.40;43.35;;;205.60;2073.60;;;;;;5094375;28;20016;-68
2021/01/07 00:23:38;;;;;;;101.13;49.28;;;205.60;2073.60;;;;;;5094031;28;20027;-67
2021/01/07 00:26:04;;;;;;;114.03;51.05;;;205.60;2073.60;;;;;;5094139;28;20370;-71
2021/01/07 00:28:30;;;;;;;136.35;56.95;;;205.60;2073.60;;;;;;5093220;28;20049;-71
2021/01/07 00:30:55;;;;;;;145.95;63.33;;;205.70;2073.60;;;;;;5093169;28;20107;-69
2021/01/07 00:33:21;;;;;;;135.20;57.33;;;205.70;2073.60;;;;;;5093754;28;20473;-68
2021/01/07 00:35:47;;;;;;;112.45;51.85;;;205.70;2073.60;;;;;;5093777;28;20028;-69
2021/01/07 00:38:13;;;;;;;105.13;49.88;;;205.70;2073.60;;;;;;5093801;28;20028;-69
2021/01/07 00:40:39;;;;;;;85.75;43.20;;;205.70;2073.60;;;;;;5072833;28;20028;-72
2021/01/07 00:43:05;;;;;;;112.15;47.35;;;205.70;2073.60;;;;;;5093678;28;20416;-69
2021/01/07 00:45:31;;;;;;;107.43;47.67;;;205.70;2073.60;;;;;;5093272;28;20032;-72
2021/01/07 00:47:58;;;;;;;89.95;42.63;;;205.70;2073.60;;;;;;5090935;28;20035;-69
2021/01/07 00:50:23;;;;;;;71.45;36.83;;;205.70;2073.60;;;;;;5093358;28;20099;-69
2021/01/07 00:52:49;;;;;;;76.75;36.92;;;205.70;2073.60;;;;;;5093626;28;20051;-71
2021/01/07 00:55:18;;;;;;;72.15;33.25;;;205.70;2073.60;;;;;;5093241;28;20063;-68
2021/01/07 00:57:44;;;;;;;77.43;31.60;;;205.70;2073.60;;;;;;5093387;28;20386;-72
2021/01/07 01:00:16;;;;;;;75.18;29.45;;;205.70;2073.60;;;;;;5093258;28;20024;-68
2021/01/07 01:02:42;;;;;;;56.25;26.70;;;205.70;2073.60;;;;;;5090987;28;20074;-69
2021/01/07 01:05:09;;;;;;;49.15;25.58;;;205.70;2073.60;;;;;;5093498;28;20040;-68
2021/01/07 01:07:35;;;;;;;46.80;24.42;;;205.70;2073.60;;;;;;5093276;28;20399;-70
2021/01/07 01:10:04;;;;;;;40.95;23.88;;;205.70;2073.60;;;;;;5093554;28;20031;-72
2021/01/07 01:12:30;;;;;;;39.38;24.92;;;205.70;2073.60;;;;;;5093099;28;20057;-74
2021/01/07 01:14:56;;;;;;;42.60;24.67;;;205.60;2073.60;;;;;;5092994;28;20111;-70
2021/01/07 01:17:21;;;;;;;50.42;28.40;;;205.60;2073.60;;;;;;5092804;28;20016;-73
2021/01/07 01:19:47;;;;;;;40.60;25.95;;;205.60;2073.60;;;;;;5093412;28;20024;-73
2021/01/07 01:22:13;;;;;;;39.75;22.25;;;205.60;2073.60;;;;;;5093293;28;20027;-68
2021/01/07 01:24:43;;;;;;;38.38;22.65;;;205.60;2073.60;;;;;;5093205;28;20482;-69
2021/01/07 01:27:09;;;;;;;38.55;23.63;;;205.60;2073.60;;;;;;5074133;28;20028;-72
2021/01/07 01:29:35;;;;;;;41.58;23.85;;;205.60;2073.60;;;;;;5075550;28;20028;-73
2021/01/07 01:32:01;;;;;;;46.63;24.10;;;205.60;2073.60;;;;;;5093622;28;20020;-71
2021/01/07 01:34:27;;;;;;;48.30;25.85;;;205.60;2073.60;;;;;;5093618;28;20062;-68
2021/01/07 01:36:53;;;;;;;59.85;31.30;;;205.60;2073.60;;;;;;5092999;28;20082;-68
2021/01/07 01:39:18;;;;;;;72.40;36.47;;;205.60;2073.60;;;;;;5074997;28;20133;-71
2021/01/07 01:41:45;;;;;;;69.88;34.85;;;205.60;2073.60;;;;;;5092470;28;20028;-69
2021/01/07 01:44:11;;;;;;;71.32;33.08;;;205.60;2073.60;;;;;;5092847;28;20509;-69
2021/01/07 01:46:37;;;;;;;55.05;27.83;;;205.60;2073.60;;;;;;5092637;28;20024;-72
2021/01/07 01:49:04;;;;;;;53.97;28.88;;;205.60;2124.80;;;;;;5093836;28;20371;-69
2021/01/07 01:51:31;;;;;;;45.35;23.63;;;205.60;2099.20;;;;;;5091891;28;20028;-69
2021/01/07 01:53:57;;;;;;;42.63;24.17;;;230.40;2201.60;;;;;;5091486;28;20044;-68
2021/01/07 01:56:23;;;;;;;38.60;23.38;;;230.50;2124.80;;;;;;5088794;28;20030;-71
2021/01/07 01:58:50;;;;;;;41.00;24.30;;;230.40;2073.60;;;;;;5092723;28;20021;-69
2021/01/07 02:01:17;;;;;;;41.95;23.05;;;230.40;2073.60;;;;;;5092373;28;20076;-67
2021/01/07 02:03:43;;;;;;;45.83;22.20;;;230.40;2048.00;;;;;;5092646;28;20048;-67
2021/01/07 02:06:13;;;;;;;34.75;19.27;;;230.40;2048.00;;;;;;5093118;28;20032;-70
2021/01/07 02:08:42;;;;;;;35.17;18.27;;;205.70;2048.00;;;;;;5093280;28;20068;-67
2021/01/07 02:11:10;;;;;;;31.98;16.48;;;205.70;2048.00;;;;;;5093614;28;20027;-67
2021/01/07 02:13:37;;;;;;;27.15;17.65;;;205.60;2048.00;;;;;;5092068;28;20032;-67
2021/01/07 02:16:04;;;;;;;31.80;19.65;;;205.60;2048.00;;;;;;5092426;28;20066;-71
2021/01/07 02:18:30;;;;;;;28.83;17.90;;;205.60;2022.40;;;;;;5092975;28;20028;-67
2021/01/07 02:20:59;;;;;;;30.92;20.05;;;205.60;2048.00;;;;;;5092853;28;20028;-70
2021/01/07 02:23:25;;;;;;;45.65;29.90;;;205.50;2048.00;;;;;;5092709;28;20031;-71
2021/01/07 02:25:52;;;;;;;65.03;41.20;;;205.50;2048.00;;;;;;5073545;28;20044;-69
2021/01/07 02:28:18;;;;;;;73.72;45.03;;;205.50;2022.40;;;;;;5092098;28;20027;-70
2021/01/07 02:30:44;;;;;;;55.58;34.42;;;205.40;2022.40;;;;;;5095423;28;20031;-71
2021/01/07 02:33:09;;;;;;;36.80;25.05;;;205.40;2022.40;;;;;;5078134;28;20127;-69
2021/01/07 02:35:35;;;;;;;32.53;20.15;;;205.30;2022.40;;;;;;5095470;28;20122;-68
2021/01/07 02:38:01;;;;;;;23.48;16.10;;;205.30;2022.40;;;;;;5096342;28;20025;-68
2021/01/07 02:40:27;;;;;;;23.30;14.93;;;205.30;2022.40;;;;;;5096673;28;20039;-69
2021/01/07 02:42:52;;;;;;;22.83;14.55;;;205.20;2022.40;;;;;;5096703;28;20032;-69
2021/01/07 02:45:18;;;;;;;23.17;13.60;;;205.20;2022.40;;;;;;5096133;28;20070;-69
2021/01/07 02:47:44;;;;;;;20.58;13.32;;;205.20;1996.80;;;;;;5096640;28;20024;-69
2021/01/07 02:50:10;;;;;;;22.05;13.52;;;205.10;1996.80;;;;;;5096446;28;20036;-69
2021/01/07 02:52:36;;;;;;;22.23;12.98;;;205.10;1996.80;;;;;;5096357;28;20028;-69
2021/01/07 02:55:03;;;;;;;19.10;13.23;;;205.10;1996.80;;;;;;5096400;28;20089;-69
2021/01/07 02:57:29;;;;;;;23.33;14.32;;;205.00;1996.80;;;;;;5096508;28;20035;-69
2021/01/07 02:59:54;;;;;;;29.30;16.80;;;205.00;1996.80;;;;;;5096301;28;20032;-68
2021/01/07 03:02:20;;;;;;;34.95;17.48;;;205.00;1996.80;;;;;;5096035;28;20128;-69
2021/01/07 03:04:46;;;;;;;30.45;18.40;;;204.90;1996.80;;;;;;5096338;28;20039;-68
2021/01/07 03:07:12;;;;;;;28.35;18.70;;;204.90;1996.80;;;;;;5096065;28;20366;-69
2021/01/07 03:09:38;;;;;;;32.38;18.80;;;204.80;1996.80;;;;;;5096112;28;20523;-67
2021/01/07 03:12:17;;;;;;;34.83;20.48;;;204.80;1996.80;;;;;;5095953;28;20458;-69
2021/01/07 03:14:43;;;;;;;35.60;21.10;;;204.80;1996.80;;;;;;5095951;28;20059;-73
2021/01/07 03:17:09;;;;;;;35.65;20.30;;;204.80;1996.80;;;;;;5095859;28;20374;-69
2021/01/07 03:19:35;;;;;;;33.80;21.40;;;204.80;1996.80;;;;;;5096057;28;20030;-69
2021/01/07 03:22:04;;;;;;;35.45;22.10;;;180.10;1996.80;;;;;;5095398;28;20020;-70
2021/01/07 03:24:33;;;;;;;36.72;21.15;;;180.10;1996.80;;;;;;5095647;28;20107;-69
2021/01/07 03:27:00;;;;;;;39.70;23.30;;;180.10;1996.80;;;;;;5095851;28;20027;-69
2021/01/07 03:29:26;;;;;;;40.47;24.73;;;180.10;1996.80;;;;;;5095453;28;20028;-69
2021/01/07 03:31:53;;;;;;;37.60;23.50;;;180.10;1996.80;;;;;;5095581;28;20048;-70
2021/01/07 03:34:19;;;;;;;35.95;22.60;;;180.00;1996.80;;;;;;5095540;28;20035;-70
2021/01/07 03:36:45;;;;;;;34.13;22.63;;;180.00;1996.80;;;;;;5095205;28;20424;-70
2021/01/07 03:39:10;;;;;;;39.35;22.98;;;180.00;1996.80;;;;;;5095559;28;20024;-70
2021/01/07 03:41:37;;;;;;;33.42;22.42;;;180.00;1996.80;;;;;;5095111;28;20082;-70
2021/01/07 03:44:03;;;;;;;40.85;25.27;;;179.90;1996.80;;;;;;5095434;28;20077;-70
2021/01/07 03:46:29;;;;;;;38.58;24.60;;;179.90;1996.80;;;;;;5095006;28;20028;-71
2021/01/07 03:48:55;;;;;;;40.85;25.77;;;179.90;1996.80;;;;;;5095337;28;20085;-70
2021/01/07 03:51:20;;;;;;;36.08;25.02;;;179.90;1996.80;;;;;;5095500;28;20512;-69
2021/01/07 03:53:46;;;;;;;47.13;27.23;;;179.80;1996.80;;;;;;5077064;28;20024;-69
2021/01/07 03:56:12;;;;;;;41.42;25.63;;;179.80;2022.40;;;;;;5095029;28;20031;-70
2021/01/07 03:58:37;;;;;;;39.50;25.33;;;179.80;2022.40;;;;;;5095219;28;20031;-70
2021/01/07 04:01:04;;;;;;;35.58;23.25;;;179.80;2022.40;;;;;;5095193;28;20381;-70
2021/01/07 04:03:30;;;;;;;36.72;24.08;;;179.90;2022.40;;;;;;5094729;28;20097;-70
2021/01/07 04:05:55;;;;;;;41.97;23.95;;;179.90;2022.40;;;;;;5095168;28;20020;-70
2021/01/07 04:08:21;;;;;;;38.25;24.35;;;179.90;2022.40;;;;;;5094808;28;20448;-69
2021/01/07 04:10:47;;;;;;;40.00;24.42;;;179.90;2022.40;;;;;;5094918;28;20016;-69
2021/01/07 04:13:13;;;;;;;39.60;25.30;;;179.90;2022.40;;;;;;5094743;28;20024;-71
2021/01/07 04:15:39;;;;;;;39.53;24.17;;;180.00;2022.40;;;;;;5094837;28;20028;-70
2021/01/07 04:18:04;;;;;;;38.15;23.70;;;180.00;2022.40;;;;;;5094761;28;20020;-71
2021/01/07 04:20:30;;;;;;;34.42;22.90;;;180.00;2022.40;;;;;;5094704;28;20031;-71
2021/01/07 04:22:56;;;;;;;35.13;23.10;;;180.00;2022.40;;;;;;5094618;28;20365;-71
2021/01/07 04:25:21;;;;;;;33.08;22.42;;;180.00;2022.40;;;;;;5094630;28;20107;-71
2021/01/07 04:27:47;;;;;;;45.72;26.08;;;180.00;2022.40;;;;;;5094622;28;20024;-70
2021/01/07 04:30:13;;;;;;;43.60;26.02;;;179.90;2022.40;;;;;;5094394;28;20024;-70
2021/01/07 04:32:39;;;;;;;39.17;24.02;;;179.90;2022.40;;;;;;5093926;28;20069;-70
2021/01/07 04:35:06;;;;;;;44.15;25.63;;;179.80;2022.40;;;;;;5094259;28;20032;-70
2021/01/07 04:37:32;;;;;;;39.67;25.63;;;179.90;1996.80;;;;;;5094261;28;20021;-69
2021/01/07 04:39:58;;;;;;;38.78;25.77;;;179.80;2022.40;;;;;;5094555;28;20028;-69
2021/01/07 04:42:24;;;;;;;40.65;27.05;;;179.80;1996.80;;;;;;5094413;28;20042;-69
2021/01/07 04:44:53;;;;;;;40.05;26.52;;;179.70;1996.80;;;;;;5094260;28;20101;-69
2021/01/07 04:47:20;;;;;;;44.17;28.35;;;179.70;1996.80;;;;;;5094089;28;20150;-70
2021/01/07 04:49:47;;;;;;;48.17;30.13;;;179.70;2022.40;;;;;;5094359;28;20495;-69
2021/01/07 04:52:12;;;;;;;61.60;37.28;;;179.60;2022.40;;;;;;5093464;28;20016;-69
2021/01/07 04:54:38;;;;;;;58.63;35.22;;;179.60;1996.80;;;;;;5093982;28;20161;-69
2021/01/07 04:57:04;;;;;;;51.50;32.83;;;179.60;1996.80;;;;;;5094222;28;20029;-69
2021/01/07 04:59:30;;;;;;;48.20;29.67;;;179.50;1996.80;;;;;;5094111;28;20420;-70
2021/01/07 05:01:56;;;;;;;39.92;27.27;;;179.50;1996.80;;;;;;5093508;28;20118;-71
2021/01/07 05:04:22;;;;;;;44.38;27.58;;;179.50;1996.80;;;;;;5093863;28;20028;-70
2021/01/07 05:06:48;;;;;;;38.80;25.55;;;179.50;1996.80;;;;;;5094101;28;20077;-70
2021/01/07 05:09:14;;;;;;;40.03;26.85;;;179.50;1996.80;;;;;;5093899;28;20031;-70
2021/01/07 05:11:39;;;;;;;50.42;31.17;;;179.40;1996.80;;;;;;5093975;28;20104;-70
2021/01/07 05:14:07;;;;;;;47.78;29.80;;;179.40;1996.80;;;;;;5093814;28;20027;-70
2021/01/07 05:16:33;;;;;;;44.65;30.35;;;179.40;1996.80;;;;;;5093641;28;20028;-70
2021/01/07 05:19:05;;;;;;;51.20;31.13;;;179.40;1996.80;;;;;;5093728;28;20020;-69
2021/01/07 05:21:32;;;;;;;47.35;31.45;;;179.40;1996.80;;;;;;5093934;28;20024;-70
2021/01/07 05:23:59;;;;;;;48.75;31.73;;;179.40;1996.80;;;;;;5093850;28;20052;-70
2021/01/07 05:26:25;;;;;;;52.50;33.72;;;179.30;1996.80;;;;;;5093795;28;20119;-69
2021/01/07 05:28:56;;;;;;;56.65;35.30;;;179.30;1996.80;;;;;;5093812;28;20073;-72
2021/01/07 05:31:26;;;;;;;52.00;34.08;;;179.30;1996.80;;;;;;5093641;28;20036;-70
2021/01/07 05:33:53;;;;;;;49.72;33.00;;;179.30;1996.80;;;;;;5094063;28;20032;-70
2021/01/07 05:36:23;;;;;;;44.05;30.55;;;179.20;1996.80;;;;;;5093759;28;20024;-70
2021/01/07 05:39:09;;;;;;;47.75;31.90;;;179.20;1996.80;;;;;;5093604;28;20059;-70
2021/01/07 05:41:35;;;;;;;55.58;32.42;;;179.20;1996.80;;;;;;5093165;28;20043;-70
2021/01/07 05:44:06;;;;;;;55.15;35.88;;;179.20;1996.80;;;;;;5093865;28;20524;-70
2021/01/07 05:46:33;;;;;;;59.33;40.00;;;179.20;1996.80;;;;;;5093647;28;20066;-70
2021/01/07 05:49:05;;;;;;;74.90;44.78;;;179.20;1996.80;;;;;;5093496;28;20025;-69
2021/01/07 05:51:31;;;;;;;76.38;47.70;;;154.50;1996.80;;;;;;5093120;28;20035;-69
2021/01/07 05:53:59;;;;;;;86.28;58.05;;;179.20;1996.80;;;;;;5093535;28;20024;-69
2021/01/07 05:56:25;;;;;;;128.95;83.65;;;179.20;1996.80;;;;;;5093521;28;20039;-69
2021/01/07 05:58:53;;;;;;;156.05;105.40;;;179.20;1996.80;;;;;;5093660;28;20099;-69
2021/01/07 06:01:20;;;;;;;130.05;90.03;;;154.50;1996.80;;;;;;5093302;28;20031;-69
2021/01/07 06:03:55;;;;;;;136.23;94.20;;;179.20;1996.80;;;;;;5077406;28;20472;-69
2021/01/07 06:06:21;;;;;;;;;;;154.50;1996.80;;;;;;5097644;28;20373;-69
2021/01/07 06:08:53;;;;;;;121.18;84.65;;;154.50;1996.80;;;;;;5097075;28;19908;-69
2021/01/07 06:11:21;;;;;;;118.45;81.25;;;154.50;1996.80;;;;;;5096968;28;20016;-69
2021/01/07 06:13:49;;;;;;;122.00;79.28;;;154.50;1996.80;;;;;;5097006;28;20020;-67
2021/01/07 06:16:20;;;;;;;104.25;67.68;;;154.50;1996.80;;;;;;5096746;28;20531;-71
2021/01/07 06:18:46;;;;;;;87.85;58.60;;;154.50;1996.80;;;;;;5096964;28;20374;-67
2021/01/07 06:21:13;;;;;;;79.97;54.75;;;154.50;1996.80;;;;;;5096883;28;20031;-67
2021/01/07 06:23:44;;;;;;;69.07;45.42;;;154.50;1996.80;;;;;;5096927;28;20027;-70
2021/01/07 06:26:28;;;;;;;61.20;40.40;;;154.50;1996.80;;;;;;5096962;28;20077;-68
2021/01/07 06:28:55;;;;;;;49.33;33.53;;;154.50;1996.80;;;;;;5097013;28;20028;-68
2021/01/07 06:31:31;;;;;;;51.75;33.60;;;154.50;1996.80;;;;;;5096662;28;20302;-68
2021/01/07 06:33:57;;;;;;;87.28;49.80;;;154.50;1996.80;;;;;;5096560;28;20032;-72
2021/01/07 06:36:39;;;;;;;138.65;83.68;;;154.50;1996.80;;;;;;5096682;28;20024;-67
2021/01/07 06:39:06;;;;;;;129.32;74.70;;;154.50;1996.80;;;;;;5078455;28;20378;-71
2021/01/07 06:41:32;;;;;;;107.93;62.63;;;154.50;1996.80;;;;;;5096586;28;20024;-67
2021/01/07 06:43:59;;;;;;;89.93;56.45;;;154.50;2022.40;;;;;;5096606;28;20016;-73
2021/01/07 06:46:44;;;;;;;73.57;47.00;;;154.50;1996.80;;;;;;5096309;28;20394;-67
2021/01/07 06:49:29;;;;;;;67.88;43.08;;;154.50;1996.80;;;;;;5096592;28;20032;-67
2021/01/07 06:52:04;;;;;;;;;;;154.50;1996.80;;;;;;5097048;28;20073;-67
2021/01/07 06:54:33;;;;;;;60.90;35.17;;;154.40;1996.80;;;;;;5096269;28;19918;-67
2021/01/07 06:57:02;;;;;;;47.95;34.38;;;179.20;2176.00;;;;;;5096073;28;20256;-67
2021/01/07 06:59:28;;;;;;;40.65;26.58;;;154.50;1996.80;;;;;;5096232;28;20020;-65
2021/01/07 07:01:57;;;;;;;34.83;26.20;;;154.50;1996.80;;;;;;5095777;28;20528;-66
2021/01/07 07:04:33;;;;;;;39.30;26.45;;;154.30;1996.80;;;;;;5096304;28;20020;-66
2021/01/07 07:07:30;;;;;;;34.78;23.48;;;154.30;1996.80;;;;;;5095012;28;20067;-64
2021/01/07 07:10:17;;;;;;;37.55;24.23;;;154.20;1996.80;;;;;;5012379;28;20040;-66
2021/01/07 07:12:50;;;;;;;32.35;23.42;;;154.00;1996.80;;;;;;5012699;28;20044;-65
2021/01/07 07:15:17;;;;;;;40.50;25.55;;;154.00;2022.40;;;;;;5011390;28;20042;-66
2021/01/07 07:17:46;;;;;;;47.67;29.08;;;153.90;1996.80;;;;;;5012361;28;20104;-65
2021/01/07 07:20:18;;;;;;;89.80;46.97;;;153.90;2022.40;;;;;;5011527;28;20124;-64
2021/01/07 07:22:45;;;;;;;77.82;45.88;;;153.90;2022.40;;;;;;5008965;28;20033;-73
2021/01/07 07:25:12;;;;;;;124.57;71.38;;;154.00;2124.80;;;;;;5013359;28;20026;-72
2021/01/07 07:27:49;;;;;;;113.13;69.85;;;154.00;2048.00;;;;;;5013514;28;20026;-70
2021/01/07 07:30:27;;;;;;;105.30;68.97;;;154.10;2048.00;;;;;;4999811;28;20083;-69
2021/01/07 07:32:53;;;;;;;108.70;67.00;;;154.10;2048.00;;;;;;5009414;28;20025;-73
2021/01/07 07:35:27;;;;;;;101.53;62.58;;;154.10;2022.40;;;;;;5012314;28;20030;-74
2021/01/07 07:37:53;;;;;;;103.88;59.28;;;154.10;2022.40;;;;;;5010648;28;20049;-82
2021/01/07 07:40:40;;;;;;;138.77;74.55;;;154.20;2048.00;;;;;;5013170;28;20507;-68
2021/01/07 07:43:07;;;;;;;176.98;78.80;;;154.10;2022.40;;;;;;5013850;28;20050;-66
2021/01/07 07:45:36;;;;;;;166.75;73.53;;;154.20;2022.40;;;;;;5013612;28;20037;-67
2021/01/07 07:48:02;;;;;;;130.95;58.92;;;154.20;2022.40;;;;;;5075359;28;20028;-75
2021/01/07 07:50:31;;;;;;;82.60;43.33;;;154.20;2022.40;;;;;;5075289;28;20373;-74
2021/01/07 07:53:23;;;;;;;63.42;35.95;;;154.20;2022.40;;;;;;5075115;28;20115;-75
2021/01/07 07:55:49;;;;;;;51.83;31.20;;;154.20;2022.40;;;;;;5090725;28;20123;-68
2021/01/07 07:58:18;;;;;;;44.33;29.50;;;154.20;2022.40;;;;;;5091055;28;20095;-71
2021/01/07 08:00:54;;;;;;;39.17;26.27;;;154.20;2022.40;;;;;;5094110;28;20020;-68
2021/01/07 08:03:31;;;;;;;41.42;27.23;;;154.20;2022.40;;;;;;5091396;28;20065;-67
2021/01/07 08:05:59;;;;;;;41.28;24.85;;;154.20;2022.40;;;;;;5091183;28;20040;-69
2021/01/07 08:08:28;;;;;;;40.90;25.83;;;154.20;2022.40;;;;;;5093727;28;20119;-68
2021/01/07 08:10:56;;;;;;;39.47;26.00;;;154.20;2022.40;;;;;;5093501;28;20058;-72
2021/01/07 08:13:24;;;;;;;39.63;24.13;;;154.20;2022.40;;;;;;5093103;28;20035;-71
2021/01/07 08:15:51;;;;;;;40.50;27.17;;;154.20;2022.40;;;;;;5093489;28;20035;-68
2021/01/07 08:18:22;;;;;;;43.33;27.83;;;154.20;2048.00;;;;;;5093408;28;20385;-67
2021/01/07 08:20:51;;;;;;;38.45;25.58;;;154.20;2022.40;;;;;;5094418;28;20497;-69
2021/01/07 08:23:17;;;;;;;39.13;25.02;;;154.30;2022.40;;;;;;5094945;28;20031;-67
2021/01/07 08:25:51;;;;;;;32.38;22.30;;;154.30;2048.00;;;;;;5094606;28;20035;-68
2021/01/07 08:28:54;;;;;;;38.72;25.50;;;154.30;2048.00;;;;;;5094599;28;20031;-70
2021/01/07 08:31:23;;;;;;;34.60;24.20;;;154.30;2048.00;;;;;;5076169;28;20028;-67
2021/01/07 08:33:50;;;;;;;33.35;22.05;;;154.40;2048.00;;;;;;5093974;28;20478;-72
2021/01/07 08:36:19;;;;;;;42.53;20.65;;;154.40;2048.00;;;;;;5093297;28;20039;-68
2021/01/07 08:38:50;;;;;;;28.00;19.55;;;179.20;2073.60;;;;;;5093816;28;20085;-77
2021/01/07 08:41:21;;;;;;;28.95;20.23;;;179.20;2048.00;;;;;;5093811;28;20059;-68
2021/01/07 08:43:51;;;;;;;25.67;18.92;;;179.30;2048.00;;;;;;5094088;28;20063;-70
2021/01/07 08:46:36;;;;;;;32.58;21.48;;;179.40;2022.40;;;;;;5094649;28;20039;-67
2021/01/07 08:49:08;;;;;;;39.22;25.35;;;179.60;2048.00;;;;;;5094272;28;20078;-70
2021/01/07 08:51:44;;;;;;;39.05;25.13;;;179.60;1996.80;;;;;;5094121;28;20024;-67
2021/01/07 08:54:15;;;;;;;30.73;22.60;;;179.70;1971.20;;;;;;5093262;28;20032;-67
2021/01/07 08:56:43;;;;;;;32.13;23.13;;;179.80;1971.20;;;;;;5093863;28;20040;-76
2021/01/07 08:59:29;;;;;;;33.28;21.77;;;179.90;1945.60;;;;;;5093943;28;20020;-69
2021/01/07 09:02:19;;;;;;;69.85;31.48;;;180.10;2022.40;;;;;;5093689;28;20126;-72
2021/01/07 09:04:45;;;;;;;27.52;18.10;;;205.00;2252.80;;;;;;5093625;28;20028;-72
2021/01/07 09:07:15;;;;;;;27.40;17.25;;;205.50;2150.40;;;;;;5093817;28;20055;-68
2021/01/07 09:09:42;;;;;;;24.70;16.27;;;230.40;2073.60;;;;;;5093626;28;20504;-71
2021/01/07 09:12:15;;;;;;;21.60;16.13;;;230.50;1843.20;;;;;;5093608;28;20036;-68
2021/01/07 09:15:05;;;;;;;27.17;15.35;;;230.40;1843.20;;;;;;5093985;28;20046;-76
2021/01/07 09:17:47;;;;;;;35.40;20.50;;;230.40;1843.20;;;;;;5093618;28;20038;-71
2021/01/07 09:20:19;;;;;;;23.52;15.38;;;205.70;1817.60;;;;;;5093684;28;20028;-66
2021/01/07 09:22:46;;;;;;;27.88;17.08;;;205.70;1817.60;;;;;;5094036;28;20028;-66
2021/01/07 09:25:17;;;;;;;31.65;17.45;;;205.60;1843.20;;;;;;5093813;28;20020;-66
2021/01/07 09:27:46;;;;;;;24.13;15.07;;;205.70;1843.20;;;;;;5093760;28;20020;-75
2021/01/07 09:30:13;;;;;;;25.27;14.75;;;230.40;1843.20;;;;;;5093716;28;20433;-72
2021/01/07 09:32:40;;;;;;;25.48;16.60;;;230.40;1843.20;;;;;;5093436;28;20466;-69
2021/01/07 09:35:06;;;;;;;23.58;15.48;;;230.40;1843.20;;;;;;5093615;28;20089;-69
2021/01/07 09:37:34;;;;;;;24.13;14.05;;;230.40;1817.60;;;;;;5094015;28;20095;-76
2021/01/07 09:40:00;;;;;;;23.70;14.45;;;230.50;1817.60;;;;;;5097757;28;20073;-66
2021/01/07 09:42:29;;;;;;;18.80;12.57;;;230.50;1817.60;;;;;;5097734;28;20488;-77
2021/01/07 09:44:55;;;;;;;23.65;16.92;;;230.50;1817.60;;;;;;5097710;28;20032;-84
2021/01/07 09:47:22;;;;;;;31.23;21.40;;;230.60;1792.00;;;;;;5097611;28;20020;-82
2021/01/07 09:49:48;;;;;;;29.40;16.67;;;230.60;1817.60;;;;;;5098319;28;20020;-84
2021/01/07 09:52:14;;;;;;;39.20;27.65;;;230.60;1792.00;;;;;;5097673;28;20034;-67
2021/01/07 09:54:40;;;;;;;37.13;25.90;;;230.80;1945.60;;;;;;5097844;28;20043;-85
2021/01/07 09:57:06;;;;;;;39.10;24.95;;;230.80;1843.20;;;;;;5097805;28;20488;-68
2021/01/07 09:59:32;;;;;;;64.22;42.55;;;230.80;1817.60;;;;;;5097512;28;20362;-69
2021/01/07 10:02:06;;;;;;;59.17;38.22;;;230.90;1792.00;;;;;;5096356;28;20156;-68
2021/01/07 10:04:32;;;;;;;58.22;35.08;;;230.90;1792.00;;;;;;5097414;28;20055;-68
2021/01/07 10:06:59;;;;;;;44.75;23.92;;;231.00;1817.60;;;;;;5097259;28;20020;-65
2021/01/07 10:09:25;;;;;;;253.70;32.55;;;231.00;1817.60;;;;;;5097496;28;20024;-68
2021/01/07 10:11:52;;;;;;;96.57;19.65;;;231.00;1868.80;;;;;;5097309;28;20040;-68
2021/01/07 10:14:19;;;;;;;50.53;21.10;;;230.90;1817.60;;;;;;5097198;28;20040;-68
2021/01/07 10:16:59;;;;;;;33.55;20.08;;;231.00;1817.60;;;;;;5096988;28;20442;-68
2021/01/07 10:19:27;;;;;;;51.50;29.35;;;230.90;1817.60;;;;;;5097307;28;20020;-68
2021/01/07 10:22:07;;;;;;;44.95;26.13;;;230.80;1817.60;;;;;;5096567;28;20055;-69
2021/01/07 10:24:38;;;;;;;73.40;33.65;;;230.80;1817.60;;;;;;5096957;28;20024;-70
2021/01/07 10:27:05;;;;;;;95.55;36.63;;;230.80;1843.20;;;;;;5096463;28;20024;-67
2021/01/07 10:29:32;;;;;;;78.80;31.67;;;230.80;1843.20;;;;;;5097353;28;20020;-67
2021/01/07 10:32:08;;;;;;;40.50;19.58;;;230.70;1843.20;;;;;;5096755;28;20016;-67
2021/01/07 10:34:39;;;;;;;33.90;17.95;;;230.70;1843.20;;;;;;5096790;28;20062;-66
2021/01/07 10:37:06;;;;;;;36.83;18.35;;;230.70;1843.20;;;;;;5096867;28;20031;-67
2021/01/07 10:39:36;;;;;;;73.07;31.30;;;230.70;1843.20;;;;;;5096666;28;20484;-67
2021/01/07 10:42:08;;;;;;;104.40;37.70;;;230.70;1843.20;;;;;;5096762;28;20477;-67
2021/01/07 10:44:35;;;;;;;76.07;30.50;;;230.70;1843.20;;;;;;5096399;28;20020;-65
2021/01/07 10:47:03;;;;;;;60.90;25.92;;;230.70;1843.20;;;;;;5096425;28;20031;-66
2021/01/07 10:49:30;;;;;;;76.85;28.92;;;230.70;1894.40;;;;;;5095178;28;20134;-66
2021/01/07 10:51:59;;;;;;;91.65;40.85;;;230.70;1843.20;;;;;;5096176;28;20029;-67
2021/01/07 10:54:46;;;;;;;79.22;46.05;;;230.70;1843.20;;;;;;5096426;28;20032;-67
2021/01/07 10:57:34;;;;;;;70.07;31.55;;;230.60;1843.20;;;;;;5096433;28;20426;-67
2021/01/07 11:00:06;;;;;;;62.78;23.40;;;230.60;1868.80;;;;;;5096294;28;20052;-67
2021/01/07 11:02:46;;;;;;;65.90;26.83;;;230.40;1843.20;;;;;;5095917;28;20048;-68
2021/01/07 11:05:37;;;;;;;75.55;29.00;;;230.40;1868.80;;;;;;5096208;28;20024;-66
2021/01/07 11:08:40;;;;;;;37.42;17.70;;;230.40;1868.80;;;;;;5096023;28;20047;-67
2021/01/07 11:11:39;;;;;;;48.65;18.95;;;230.40;1868.80;;;;;;5096145;28;20032;-67
2021/01/07 11:14:13;;;;;;;37.40;17.85;;;230.40;1868.80;;;;;;4994306;28;20109;-67
2021/01/07 11:16:49;;;;;;;52.50;21.48;;;230.50;1868.80;;;;;;4994248;28;20093;-71
2021/01/07 11:19:22;;;;;;;36.67;17.05;;;230.50;1868.80;;;;;;4994546;28;20045;-66
2021/01/07 11:21:57;;;;;;;36.22;20.00;;;230.60;1868.80;;;;;;4994282;28;20110;-66
2021/01/07 11:24:24;;;;;;;31.17;18.42;;;230.60;1868.80;;;;;;4977473;28;20134;-66
2021/01/07 11:26:52;;;;;;;27.60;16.65;;;230.60;1868.80;;;;;;4994595;28;20038;-66
2021/01/07 11:29:20;;;;;;;62.75;29.70;;;230.60;1868.80;;;;;;4993764;28;20038;-67
2021/01/07 11:31:47;;;;;;;30.35;17.63;;;230.60;1868.80;;;;;;4993781;28;20042;-69
2021/01/07 11:34:13;;;;;;;35.08;20.15;;;230.70;1843.20;;;;;;4993716;28;20034;-66
2021/01/07 11:36:51;;;;;;;60.63;32.60;;;230.60;1843.20;;;;;;4993902;28;20121;-66
2021/01/07 11:39:25;;;;;;;71.80;38.15;;;230.70;1843.20;;;;;;4993827;28;20038;-67
2021/01/07 11:42:09;;;;;;;55.13;26.05;;;230.60;1868.80;;;;;;4994274;28;20381;-66
2021/01/07 11:44:55;;;;;;;43.17;22.45;;;230.60;1843.20;;;;;;4993973;28;20226;-68
2021/01/07 11:47:22;;;;;;;38.92;19.77;;;230.60;1843.20;;;;;;4992542;28;20051;-67
2021/01/07 11:49:49;;;;;;;32.50;18.10;;;230.60;1843.20;;;;;;5018634;28;20035;-66
2021/01/07 11:52:16;;;;;;;34.38;19.52;;;230.70;1843.20;;;;;;5094102;28;20051;-68
2021/01/07 11:54:45;;;;;;;38.17;20.50;;;230.70;1843.20;;;;;;5093095;28;20035;-66
2021/01/07 11:57:13;;;;;;;54.60;31.13;;;230.80;1843.20;;;;;;5093736;28;20062;-67
2021/01/07 11:59:39;;;;;;;108.03;65.40;;;230.80;1843.20;;;;;;5093553;28;20066;-69
2021/01/07 12:02:09;;;;;;;52.38;26.08;;;230.90;1894.40;;;;;;5093257;28;20047;-66
2021/01/07 12:04:38;;;;;;;32.33;18.00;;;230.90;1868.80;;;;;;5093114;28;20385;-68
2021/01/07 12:07:24;;;;;;;34.50;17.35;;;230.90;1843.20;;;;;;5093324;28;20137;-69
2021/01/07 12:09:50;;;;;;;20.27;12.60;;;230.90;1817.60;;;;;;5090363;28;20438;-70